createdAt,value
2022-08-28T00:01:21.466Z,1009
2022-08-28T00:04:21.482Z,1009
2022-08-28T00:07:21.479Z,1009
2022-08-28T00:10:22.356Z,1009
2022-08-28T00:13:21.480Z,1009.1
2022-08-28T00:16:21.538Z,1009
2022-08-28T00:19:21.495Z,1009
2022-08-28T00:22:21.494Z,1008.9
2022-08-28T00:25:21.495Z,1009.1
2022-08-28T00:28:23.554Z,1009
2022-08-28T00:31:21.530Z,1009.1
2022-08-28T00:34:21.513Z,1009.1
2022-08-28T00:37:24.120Z,1009.1
2022-08-28T00:40:28.455Z,1009.1
2022-08-28T00:43:21.519Z,1009.1
2022-08-28T00:46:21.572Z,1009.1
2022-08-28T00:49:21.534Z,1009.1
2022-08-28T00:52:21.536Z,1009.1
2022-08-28T00:55:21.541Z,1009.1
2022-08-28T00:58:21.550Z,1009.1
2022-08-28T01:01:21.583Z,1009.1
2022-08-28T01:04:21.559Z,1009.1
2022-08-28T01:07:21.560Z,1009.2
2022-08-28T01:10:21.562Z,1009.2
2022-08-28T01:13:21.562Z,1009.2
2022-08-28T01:16:21.617Z,1009.1
2022-08-28T01:19:21.566Z,1009.1
2022-08-28T01:22:21.571Z,1009.1
2022-08-28T01:25:21.573Z,1009.2
2022-08-28T01:28:21.582Z,1009.2
2022-08-28T01:31:21.706Z,1009.2
2022-08-28T01:34:21.586Z,1009.1
2022-08-28T01:37:21.595Z,1009.1
2022-08-28T01:40:21.632Z,1009.1
2022-08-28T01:43:21.598Z,1009.2
2022-08-28T01:46:21.636Z,1009.3
2022-08-28T01:49:21.607Z,1009.2
2022-08-28T01:52:22.248Z,1009.2
2022-08-28T01:55:21.757Z,1009.3
2022-08-28T01:58:21.622Z,1009.2
2022-08-28T02:01:21.699Z,1009.2
2022-08-28T02:04:21.656Z,1009.2
2022-08-28T02:07:21.636Z,1009.2
2022-08-28T02:10:21.639Z,1009.2
2022-08-28T02:13:21.645Z,1009.2
2022-08-28T02:16:21.671Z,1009.2
2022-08-28T02:19:21.665Z,1009.2
2022-08-28T02:22:21.660Z,1009.2
2022-08-28T02:25:21.654Z,1009.3
2022-08-28T02:28:21.668Z,1009.3
2022-08-28T02:31:21.732Z,1009.3
2022-08-28T02:34:21.679Z,1009.2
2022-08-28T02:37:21.684Z,1009.2
2022-08-28T02:40:21.706Z,1009.3
2022-08-28T02:43:21.702Z,1009.3
2022-08-28T02:46:21.750Z,1009.3
2022-08-28T02:49:21.717Z,1009.3
2022-08-28T02:52:21.716Z,1009.2
2022-08-28T02:55:21.729Z,1009.3
2022-08-28T02:58:21.729Z,1009.3
2022-08-28T03:01:21.766Z,1009.3
2022-08-28T03:04:21.743Z,1009.3
2022-08-28T03:07:21.744Z,1009.3
2022-08-28T03:10:21.761Z,1009.2
2022-08-28T03:13:23.145Z,1009.2
2022-08-28T03:16:21.771Z,1009.3
2022-08-28T03:19:21.766Z,1009.3
2022-08-28T03:22:21.773Z,1009.3
2022-08-28T03:25:21.781Z,1009.4
2022-08-28T03:28:21.781Z,1009.4
2022-08-28T03:31:21.852Z,1009.4
2022-08-28T03:34:21.798Z,1009.4
2022-08-28T03:37:21.803Z,1009.4
2022-08-28T03:40:21.910Z,1009.5
2022-08-28T03:43:21.817Z,1009.5
2022-08-28T03:46:21.844Z,1009.5
2022-08-28T03:49:21.821Z,1009.5
2022-08-28T03:52:21.831Z,1009.4
2022-08-28T03:55:21.835Z,1009.5
2022-08-28T03:58:21.844Z,1009.5
2022-08-28T04:01:21.902Z,1009.5
2022-08-28T04:04:21.856Z,1009.5
2022-08-28T04:07:21.858Z,1009.5
2022-08-28T04:10:21.866Z,1009.6
2022-08-28T04:13:21.871Z,1009.6
2022-08-28T04:16:21.910Z,1009.6
2022-08-28T04:19:21.887Z,1009.6
2022-08-28T04:22:21.891Z,1009.7
2022-08-28T04:25:21.909Z,1009.6
2022-08-28T04:28:21.903Z,1009.6
2022-08-28T04:31:31.289Z,1009.6
2022-08-28T04:34:21.917Z,1009.6
2022-08-28T04:37:21.919Z,1009.6
2022-08-28T04:40:21.977Z,1009.6
2022-08-28T04:43:21.944Z,1009.6
2022-08-28T04:46:21.976Z,1009.6
2022-08-28T04:49:21.957Z,1009.6
2022-08-28T04:52:21.963Z,1009.6
2022-08-28T04:55:24.400Z,1009.6
2022-08-28T04:58:23.641Z,1009.7
2022-08-28T05:01:22.069Z,1009.6
2022-08-28T05:04:21.984Z,1009.6
2022-08-28T05:07:21.999Z,1009.7
2022-08-28T05:10:22.004Z,1009.7
2022-08-28T05:13:22.015Z,1009.7
2022-08-28T05:16:22.057Z,1009.7
2022-08-28T05:19:22.024Z,1009.7
2022-08-28T05:22:22.037Z,1009.6
2022-08-28T05:25:22.044Z,1009.7
2022-08-28T05:28:22.053Z,1009.8
2022-08-28T05:31:22.100Z,1009.9
2022-08-28T05:34:22.071Z,1009.8
2022-08-28T05:37:22.077Z,1009.8
2022-08-28T05:40:22.148Z,1009.9
2022-08-28T05:43:22.092Z,1009.8
2022-08-28T05:46:22.115Z,1009.9
2022-08-28T05:49:22.100Z,1009.9
2022-08-28T05:52:22.116Z,1009.9
2022-08-28T05:55:22.125Z,1009.9
2022-08-28T05:58:22.132Z,1009.9
2022-08-28T06:01:22.136Z,1010
2022-08-28T06:04:22.172Z,1009.9
2022-08-28T06:07:22.156Z,1010
2022-08-28T06:10:22.158Z,1009.9
2022-08-28T06:13:22.172Z,1010
2022-08-28T06:16:22.232Z,1010
2022-08-28T06:19:22.186Z,1009.9
2022-08-28T06:22:22.198Z,1009.9
2022-08-28T06:25:22.208Z,1010
2022-08-28T06:28:22.212Z,1010
2022-08-28T06:31:23.054Z,1010
2022-08-28T06:34:22.237Z,1010.1
2022-08-28T06:37:22.243Z,1010.1
2022-08-28T06:40:22.303Z,1010.1
2022-08-28T06:43:22.269Z,1010.1
2022-08-28T06:46:22.304Z,1010.1
2022-08-28T06:49:22.286Z,1010.2
2022-08-28T06:52:22.327Z,1010.2
2022-08-28T06:55:22.302Z,1010.2
2022-08-28T06:58:22.308Z,1010.3
2022-08-28T07:01:22.357Z,1010.3
2022-08-28T07:04:22.351Z,1010.2
2022-08-28T07:07:31.389Z,1010.3
2022-08-28T07:10:22.349Z,1010.3
2022-08-28T07:13:22.355Z,1010.3
2022-08-28T07:16:22.401Z,1010.3
2022-08-28T07:19:22.353Z,1010.3
2022-08-28T07:22:22.367Z,1010.3
2022-08-28T07:25:22.369Z,1010.4
2022-08-28T07:28:22.374Z,1010.3
2022-08-28T07:31:22.393Z,1010.4
2022-08-28T07:34:22.367Z,1010.4
2022-08-28T07:37:22.370Z,1010.4
2022-08-28T07:40:22.485Z,1010.4
2022-08-28T07:43:22.372Z,1010.3
2022-08-28T07:46:22.410Z,1010.4
2022-08-28T07:49:22.379Z,1010.4
2022-08-28T07:52:22.379Z,1010.3
2022-08-28T07:55:22.379Z,1010.4
2022-08-28T07:58:22.380Z,1010.4
2022-08-28T08:01:22.395Z,1010.4
2022-08-28T08:04:22.397Z,1010.4
2022-08-28T08:07:22.393Z,1010.4
2022-08-28T08:10:22.390Z,1010.4
2022-08-28T08:13:22.392Z,1010.4
2022-08-28T08:16:22.423Z,1010.3
2022-08-28T08:19:22.407Z,1010.4
2022-08-28T08:22:22.388Z,1010.5
2022-08-28T08:25:22.395Z,1010.5
2022-08-28T08:28:22.397Z,1010.5
2022-08-28T08:31:22.431Z,1010.5
2022-08-28T08:34:22.412Z,1010.4
2022-08-28T08:37:22.405Z,1010.4
2022-08-28T08:40:22.453Z,1010.3
2022-08-28T08:43:22.407Z,1010.5
2022-08-28T08:46:22.415Z,1010.5
2022-08-28T08:49:22.538Z,1010.4
2022-08-28T08:52:22.414Z,1010.4
2022-08-28T08:55:22.412Z,1010.4
2022-08-28T08:58:22.420Z,1010.4
2022-08-28T09:01:22.441Z,1010.4
2022-08-28T09:04:22.434Z,1010.4
2022-08-28T09:07:22.432Z,1010.5
2022-08-28T09:10:22.434Z,1010.5
2022-08-28T09:13:22.432Z,1010.5
2022-08-28T09:16:22.521Z,1010.5
2022-08-28T09:19:22.449Z,1010.5
2022-08-28T09:22:22.445Z,1010.5
2022-08-28T09:25:22.452Z,1010.5
2022-08-28T09:28:22.459Z,1010.5
2022-08-28T09:31:22.477Z,1010.5
2022-08-28T09:34:22.477Z,1010.5
2022-08-28T09:37:22.464Z,1010.6
2022-08-28T09:40:22.516Z,1010.5
2022-08-28T09:43:22.474Z,1010.5
2022-08-28T09:46:22.498Z,1010.6
2022-08-28T09:49:22.516Z,1010.6
2022-08-28T09:52:25.050Z,1010.6
2022-08-28T09:55:22.490Z,1010.6
2022-08-28T09:58:22.496Z,1010.5
2022-08-28T10:01:22.547Z,1010.5
2022-08-28T10:04:22.595Z,1010.4
2022-08-28T10:07:22.505Z,1010.4
2022-08-28T10:10:22.503Z,1010.4
2022-08-28T10:13:22.514Z,1010.3
2022-08-28T10:16:22.535Z,1010.5
2022-08-28T10:19:22.532Z,1010.4
2022-08-28T10:22:22.522Z,1010.5
2022-08-28T10:25:22.539Z,1010.5
2022-08-28T10:28:22.536Z,1010.4
2022-08-28T10:31:22.633Z,1010.5
2022-08-28T10:34:22.546Z,1010.5
2022-08-28T10:37:22.547Z,1010.5
2022-08-28T10:40:22.626Z,1010.5
2022-08-28T10:43:22.550Z,1010.5
2022-08-28T10:46:26.577Z,1010.5
2022-08-28T10:49:22.574Z,1010.5
2022-08-28T10:52:22.567Z,1010.3
2022-08-28T10:55:22.571Z,1010.3
2022-08-28T10:58:22.581Z,1010.4
2022-08-28T11:01:22.620Z,1010.5
2022-08-28T11:04:25.342Z,1010.4
2022-08-28T11:07:22.595Z,1010.4
2022-08-28T11:10:22.595Z,1010.3
2022-08-28T11:13:22.604Z,1010.5
2022-08-28T11:16:22.642Z,1010.3
2022-08-28T11:19:22.631Z,1010.4
2022-08-28T11:22:22.624Z,1010.4
2022-08-28T11:25:26.391Z,1010.4
2022-08-28T11:28:22.636Z,1010.4
2022-08-28T11:31:29.266Z,1010.4
2022-08-28T11:34:22.652Z,1010.3
2022-08-28T11:37:22.655Z,1010.4
2022-08-28T11:40:22.735Z,1010.5
2022-08-28T11:43:22.663Z,1010.5
2022-08-28T11:46:24.048Z,1010.5
2022-08-28T11:49:22.706Z,1010.4
2022-08-28T11:52:22.685Z,1010.4
2022-08-28T11:55:22.717Z,1010.4
2022-08-28T11:58:22.715Z,1010.4
2022-08-28T12:01:22.721Z,1010.4
2022-08-28T12:04:23.792Z,1010.3
2022-08-28T12:07:22.732Z,1010.3
2022-08-28T12:10:22.746Z,1010.3
2022-08-28T12:13:22.752Z,1010.3
2022-08-28T12:16:22.802Z,1010.3
2022-08-28T12:19:22.785Z,1010.3
2022-08-28T12:22:22.766Z,1010.2
2022-08-28T12:25:22.757Z,1010.2
2022-08-28T12:28:22.766Z,1010.2
2022-08-28T12:31:22.835Z,1010.2
2022-08-28T12:34:22.795Z,1010
2022-08-28T12:37:22.772Z,1010.1
2022-08-28T12:40:22.852Z,1010.1
2022-08-28T12:43:22.780Z,1010.1
2022-08-28T12:46:22.800Z,1010.2
2022-08-28T12:49:22.797Z,1010.2
2022-08-28T12:52:22.793Z,1010.1
2022-08-28T12:55:24.515Z,1010.1
2022-08-28T12:58:22.806Z,1010.1
2022-08-28T13:01:22.857Z,1010.1
2022-08-28T13:04:22.815Z,1010.1
2022-08-28T13:07:22.805Z,1010
2022-08-28T13:10:22.807Z,1010
2022-08-28T13:13:22.813Z,1010.1
2022-08-28T13:16:22.844Z,1010.1
2022-08-28T13:19:22.842Z,1010
2022-08-28T13:22:22.815Z,1009.9
2022-08-28T13:25:22.819Z,1009.9
2022-08-28T13:28:22.816Z,1009.9
2022-08-28T13:31:22.822Z,1009.9
2022-08-28T13:34:22.842Z,1009.9
2022-08-28T13:37:22.830Z,1009.8
2022-08-28T13:43:22.826Z,1009.8
2022-08-28T13:46:22.870Z,1009.8
2022-08-28T13:49:22.838Z,1009.8
2022-08-28T13:52:22.828Z,1009.8
2022-08-28T13:55:22.829Z,1009.9
2022-08-28T13:58:22.831Z,1009.9
2022-08-28T14:01:22.877Z,1009.9
2022-08-28T14:04:22.839Z,1009.9
2022-08-28T14:07:22.838Z,1009.8
2022-08-28T14:10:22.837Z,1009.8
2022-08-28T14:13:22.845Z,1009.8
2022-08-28T14:16:22.878Z,1009.8
2022-08-28T14:19:22.867Z,1009.9
2022-08-28T14:22:22.860Z,1009.9
2022-08-28T14:25:22.873Z,1009.8
2022-08-28T14:28:22.877Z,1009.8
2022-08-28T14:31:23.886Z,1009.8
2022-08-28T14:34:23.050Z,1009.9
2022-08-28T14:37:22.897Z,1009.8
2022-08-28T14:40:22.903Z,1009.8
2022-08-28T14:43:22.910Z,1009.9
2022-08-28T14:46:22.978Z,1009.9
2022-08-28T14:49:22.934Z,1009.8
2022-08-28T14:52:22.925Z,1009.8
2022-08-28T14:55:22.932Z,1009.7
2022-08-28T14:58:22.941Z,1009.7
2022-08-28T15:01:22.958Z,1009.8
2022-08-28T15:04:23.053Z,1009.8
2022-08-28T15:07:22.961Z,1009.8
2022-08-28T15:10:22.965Z,1009.8
2022-08-28T15:13:22.971Z,1009.8
2022-08-28T15:16:25.616Z,1009.8
2022-08-28T15:19:23.001Z,1009.6
2022-08-28T15:22:27.277Z,1009.8
2022-08-28T15:25:22.998Z,1009.8
2022-08-28T15:28:23.001Z,1009.8
2022-08-28T15:31:23.035Z,1009.7
2022-08-28T15:34:23.036Z,1009.9
2022-08-28T15:37:23.030Z,1009.9
2022-08-28T15:40:23.155Z,1009.9
2022-08-28T15:43:23.037Z,1009.9
2022-08-28T15:46:23.047Z,1009.9
2022-08-28T15:49:23.825Z,1009.9
2022-08-28T15:52:23.052Z,1009.9
2022-08-28T15:55:23.061Z,1009.9
2022-08-28T15:58:23.077Z,1010
2022-08-28T16:01:23.115Z,1009.9
2022-08-28T16:04:23.097Z,1009.9
2022-08-28T16:07:23.103Z,1009.9
2022-08-28T16:10:23.099Z,1010
2022-08-28T16:13:23.114Z,1010
2022-08-28T16:16:23.157Z,1010
2022-08-28T16:19:23.144Z,1010.1
2022-08-28T16:22:23.135Z,1010.1
2022-08-28T16:25:23.138Z,1009.9
2022-08-28T16:28:23.147Z,1010.1
2022-08-28T16:31:23.203Z,1010.1
2022-08-28T16:34:23.202Z,1010.1
2022-08-28T16:37:23.311Z,1010.2
2022-08-28T16:40:23.225Z,1010.1
2022-08-28T16:43:23.180Z,1010.2
2022-08-28T16:46:23.248Z,1010
2022-08-28T16:49:23.214Z,1010.2
2022-08-28T16:52:23.206Z,1010.2
2022-08-28T16:55:23.223Z,1010.2
2022-08-28T16:58:23.236Z,1010.2
2022-08-28T17:01:23.988Z,1010.2
2022-08-28T17:04:23.283Z,1010.3
2022-08-28T17:07:23.262Z,1010.2
2022-08-28T17:10:23.268Z,1010.3
2022-08-28T17:13:23.278Z,1010.2
2022-08-28T17:16:23.315Z,1010.3
2022-08-28T17:19:23.317Z,1010.3
2022-08-28T17:22:23.303Z,1010.2
2022-08-28T17:25:23.327Z,1010.3
2022-08-28T17:28:23.331Z,1010.3
2022-08-28T17:31:23.380Z,1010.3
2022-08-28T17:34:26.878Z,1010.3
2022-08-28T17:37:23.351Z,1010.4
2022-08-28T17:40:23.369Z,1010.4
2022-08-28T17:43:23.365Z,1010.4
2022-08-28T17:46:23.437Z,1010.4
2022-08-28T17:49:23.410Z,1010.4
2022-08-28T17:52:23.394Z,1010.4
2022-08-28T17:55:23.408Z,1010.5
2022-08-28T17:58:23.418Z,1010.5
2022-08-28T18:01:23.459Z,1010.5
2022-08-28T18:04:24.349Z,1010.6
2022-08-28T18:07:23.626Z,1010.6
2022-08-28T18:10:23.469Z,1010.6
2022-08-28T18:13:23.476Z,1010.7
2022-08-28T18:16:26.547Z,1010.7
2022-08-28T18:19:23.527Z,1010.8
2022-08-28T18:22:26.503Z,1010.8
2022-08-28T18:25:23.522Z,1010.8
2022-08-28T18:28:23.540Z,1010.9
2022-08-28T18:31:23.558Z,1010.9
2022-08-28T18:34:23.565Z,1010.9
2022-08-28T18:37:23.568Z,1011
2022-08-28T18:40:23.623Z,1010.9
2022-08-28T18:43:23.592Z,1011
2022-08-28T18:46:23.644Z,1011
2022-08-28T18:49:23.629Z,1011.1
2022-08-28T18:52:23.631Z,1011.2
2022-08-28T18:55:23.637Z,1011.2
2022-08-28T18:58:23.654Z,1011.2
2022-08-28T19:01:23.694Z,1011.1
2022-08-28T19:04:23.688Z,1011.2
2022-08-28T19:07:23.687Z,1011.3
2022-08-28T19:10:33.170Z,1011.4
2022-08-28T19:13:23.722Z,1011.3
2022-08-28T19:16:23.882Z,1011.3
2022-08-28T19:19:23.743Z,1011.3
2022-08-28T19:22:23.740Z,1011.4
2022-08-28T19:25:28.082Z,1011.4
2022-08-28T19:28:23.773Z,1011.4
2022-08-28T19:31:23.838Z,1011.5
2022-08-28T19:34:23.821Z,1011.5
2022-08-28T19:37:23.808Z,1011.5
2022-08-28T19:40:23.903Z,1011.5
2022-08-28T19:43:23.841Z,1011.6
2022-08-28T19:46:23.867Z,1011.6
2022-08-28T19:49:23.880Z,1011.6
2022-08-28T19:52:23.887Z,1011.6
2022-08-28T19:55:23.899Z,1011.7
2022-08-28T19:58:23.905Z,1011.6
2022-08-28T20:01:23.997Z,1011.6
2022-08-28T20:04:23.950Z,1011.7
2022-08-28T20:07:23.951Z,1011.9
2022-08-28T20:10:23.960Z,1011.7
2022-08-28T20:13:23.970Z,1011.8
2022-08-28T20:16:23.991Z,1011.9
2022-08-28T20:19:24.011Z,1011.9
2022-08-28T20:22:24.017Z,1011.9
2022-08-28T20:25:24.032Z,1011.9
2022-08-28T20:28:24.049Z,1011.9
2022-08-28T20:31:24.078Z,1011.9
2022-08-28T20:34:24.088Z,1012
2022-08-28T20:37:24.091Z,1012.1
2022-08-28T20:40:24.185Z,1012.1
2022-08-28T20:43:24.128Z,1012
2022-08-28T20:46:24.169Z,1012
2022-08-28T20:49:24.167Z,1012
2022-08-28T20:52:24.167Z,1012
2022-08-28T20:55:24.190Z,1012.1
2022-08-28T20:58:24.190Z,1012
2022-08-28T21:01:24.235Z,1012.1
2022-08-28T21:04:24.233Z,1012.2
2022-08-28T21:07:24.238Z,1012.2
2022-08-28T21:10:24.254Z,1012.2
2022-08-28T21:13:24.274Z,1012.2
2022-08-28T21:16:24.321Z,1012.2
2022-08-28T21:19:24.320Z,1012.2
2022-08-28T21:22:24.316Z,1012.1
2022-08-28T21:25:24.336Z,1012.2
2022-08-28T21:28:24.357Z,1012.2
2022-08-28T21:31:24.425Z,1012.2
2022-08-28T21:34:24.403Z,1012.1
2022-08-28T21:37:24.411Z,1012.1
2022-08-28T21:40:24.498Z,1012.1
2022-08-28T21:43:24.443Z,1012.1
2022-08-28T21:46:24.523Z,1012
2022-08-28T21:49:24.484Z,1012
2022-08-28T21:52:24.487Z,1012.2
2022-08-28T21:55:24.504Z,1012.2
2022-08-28T21:58:24.515Z,1012.2
2022-08-28T22:01:24.644Z,1012.2
2022-08-28T22:04:24.585Z,1012.2
2022-08-28T22:07:24.580Z,1012.2
2022-08-28T22:10:24.597Z,1012.2
2022-08-28T22:13:24.619Z,1012.2
2022-08-28T22:16:24.678Z,1012.2
2022-08-28T22:19:24.660Z,1012.2
2022-08-28T22:22:24.668Z,1012.2
2022-08-28T22:25:24.694Z,1012.3
2022-08-28T22:28:24.718Z,1012.3
2022-08-28T22:31:24.816Z,1012.3
2022-08-28T22:34:24.761Z,1012.3
2022-08-28T22:37:24.773Z,1012.3
2022-08-28T22:40:24.834Z,1012.3
2022-08-28T22:43:24.807Z,1012.3
2022-08-28T22:46:24.856Z,1012.3
2022-08-28T22:49:24.846Z,1012.3
2022-08-28T22:52:24.854Z,1012.3
2022-08-28T22:55:24.883Z,1012.3
2022-08-28T22:58:24.903Z,1012.3
2022-08-28T23:01:24.924Z,1012.3
2022-08-28T23:04:25.007Z,1012.3
2022-08-28T23:07:24.954Z,1012.4
2022-08-28T23:10:36.897Z,1012.3
2022-08-28T23:13:25.014Z,1012.2
2022-08-28T23:16:25.064Z,1012.2
2022-08-28T23:19:25.050Z,1012.2
2022-08-28T23:22:25.044Z,1012.3
2022-08-28T23:25:25.051Z,1012.3
2022-08-28T23:28:25.058Z,1012.3
2022-08-28T23:31:25.085Z,1012.3
2022-08-28T23:34:25.074Z,1012.2
2022-08-28T23:37:25.071Z,1012.3
2022-08-28T23:40:25.128Z,1012.2
2022-08-28T23:43:25.069Z,1012.2
2022-08-28T23:46:25.077Z,1012.2
2022-08-28T23:49:27.019Z,1012.2
2022-08-28T23:52:25.082Z,1012.2
2022-08-28T23:55:26.973Z,1012.2
2022-08-28T23:58:25.080Z,1012.2
